This is the latest recevied weather packets stored in our database for station/object K6HN. If no packets are shown the sender has not sent any weather packets the latest 1 day(s).
| Time | Temp. | Humidity | Pressure | Rain* | Wind** | Luminosity | Snow |
|---|---|---|---|---|---|---|---|
| 1778006579 | 13.33° C | 54% | 1002 hPa | 0 mm | 1.79 m/s, 258° | - | - |
| 1778005679 | 13.33° C | 52% | 1001.7 hPa | 0 mm | 2.24 m/s, 325° | - | - |
| 1778004779 | 12.78° C | 53% | 1001.4 hPa | 0 mm | 1.34 m/s, 282° | - | - |
| 1778003879 | 12.78° C | 53% | 1001.4 hPa | 0 mm | 1.34 m/s, 289° | - | - |
| 1778002979 | 12.22° C | 52% | 1001.4 hPa | 0 mm | 2.24 m/s, 290° | - | - |
| 1778002091 | 12.22° C | 51% | 1001.4 hPa | 0 mm | 1.34 m/s, 257° | - | - |
| 1778001179 | 12.22° C | 52% | 1001.4 hPa | 0 mm | 1.79 m/s, 290° | - | - |
| 1778000279 | 12.22° C | 53% | 1001 hPa | 0 mm | 1.34 m/s, 308° | - | - |
| 1777999379 | 12.22° C | 52% | 1001.4 hPa | 0.51 mm | 1.79 m/s, 283° | - | - |
| 1777998479 | 11.67° C | 52% | 1001.4 hPa | 0.51 mm | 0.89 m/s, 259° | - | - |
| 1777997579 | 11.11° C | 52% | 1001 hPa | 0.51 mm | 0.45 m/s, 260° | - | - |
| 1777996679 | 11.11° C | 51% | 1000.7 hPa | 0.51 mm | 0.89 m/s, 295° | - | - |
| 1777995779 | 11.11° C | 51% | 1000.7 hPa | 0 mm | 1.34 m/s, 270° | - | - |
| 1777994879 | 11.11° C | 51% | 1000.7 hPa | 0 mm | 0.45 m/s, 252° | - | - |
| 1777993979 | 11.11° C | 50% | 1000.7 hPa | 0 mm | 0.89 m/s, 271° | - | - |
| 1777993079 | 11.11° C | 50% | 1000.7 hPa | 0 mm | 1.34 m/s, 286° | - | - |
| 1777992179 | 10.56° C | 50% | 1000.3 hPa | 0 mm | 0.89 m/s, 270° | - | - |
| 1777991279 | 10.56° C | 49% | 1000.7 hPa | 0 mm | 0.45 m/s, 271° | - | - |
| 1777990379 | 10.56° C | 49% | 1000.3 hPa | 0 mm | 0.45 m/s, 232° | - | - |
| 1777989479 | 10° C | 49% | 1000.3 hPa | 0 mm | 0 m/s | - | - |
| 1777988579 | 10° C | 49% | 1000 hPa | 0 mm | 0 m/s | - | - |
| 1777987679 | 10° C | 49% | 999.7 hPa | 0 mm | 0.89 m/s, 285° | - | - |
| 1777986779 | 10° C | 49% | 1000 hPa | 0 mm | 0.45 m/s, 286° | - | - |
| 1777985879 | 10° C | 48% | 1000 hPa | 0 mm | 0.89 m/s, 317° | - | - |
| 1777984979 | 10° C | 48% | 999.7 hPa | 0 mm | 0 m/s | - | - |
* Rain latest hour (hover to see other rain measurements)
** Current wind speed in m/s (hover to see current wind gust speed)